Time;durP1;ratioP1;P1;durP2;ratioP2;P2;SDS_P1;SDS_P2;PMS_P1;PMS_P2;Temp;Humidity;BMP_temperature;BMP_pressure;BME280_temperature;BME280_humidity;BME280_pressure;Samples;Min_cycle;Max_cycle;Signal;HPM_P1;HPM_P2
2023/07/12 00:01:27;;;;;;;6.82;3.30;;;21.80;99.90;;;23.65;61.44;97345.09;5033564;28;20493;-50
2023/07/12 00:03:55;;;;;;;5.43;3.40;;;21.90;99.90;;;23.68;61.25;97360.06;5033711;28;20425;-54
2023/07/12 00:06:38;;;;;;;5.18;3.17;;;22.00;99.90;;;23.63;61.24;97352.66;5035011;28;20056;-53
2023/07/12 00:09:13;;;;;;;5.20;3.30;;;22.00;99.90;;;23.59;60.97;97360.53;5034810;28;20045;-53
2023/07/12 00:11:41;;;;;;;4.38;3.22;;;22.00;99.90;;;23.58;60.92;97355.31;5034946;28;20424;-53
2023/07/12 00:14:09;;;;;;;3.78;2.92;;;22.10;99.90;;;23.55;61.15;97342.22;5034758;28;20416;-53
2023/07/12 00:16:39;;;;;;;6.13;3.67;;;22.20;99.90;;;23.56;61.36;97342.00;5034929;28;20056;-51
2023/07/12 00:19:17;;;;;;;7.72;3.30;;;22.20;99.90;;;23.58;61.26;97348.00;5034629;28;20049;-53
2023/07/12 00:21:45;;;;;;;4.65;2.95;;;22.20;99.90;;;23.61;61.05;97343.13;5034591;28;20412;-53
2023/07/12 00:24:12;;;;;;;3.60;2.58;;;22.30;99.90;;;23.66;61.01;97343.19;5034413;28;20050;-53
2023/07/12 00:26:40;;;;;;;4.15;3.00;;;22.30;99.90;;;23.69;60.74;97337.25;5033494;28;20052;-53
2023/07/12 00:29:08;;;;;;;6.28;3.53;;;22.30;99.90;;;23.71;60.37;97330.50;5034614;28;20041;-51
2023/07/12 00:31:38;;;;;;;4.75;3.33;;;22.30;99.90;;;23.74;60.54;97318.28;5034384;28;20053;-52
2023/07/12 00:34:06;;;;;;;3.83;3.33;;;22.30;99.90;;;23.76;60.45;97294.41;5034557;28;20049;-52
2023/07/12 00:36:35;;;;;;;3.38;3.08;;;22.30;99.90;;;23.72;60.11;97288.66;5034593;28;20573;-50
2023/07/12 00:39:05;;;;;;;4.72;3.15;;;22.20;99.90;;;23.65;60.13;97311.66;5034293;28;20037;-50
2023/07/12 00:41:53;;;;;;;4.45;2.80;;;22.10;99.90;;;23.69;60.29;97307.34;5032277;28;20048;-52
2023/07/12 00:44:31;;;;;;;3.83;3.03;;;22.10;99.90;;;23.72;60.01;97315.00;5027718;28;20042;-53
2023/07/12 00:46:59;;;;;;;4.05;2.55;;;22.10;99.90;;;23.74;59.90;97321.00;5016986;28;20041;-52
2023/07/12 00:49:27;;;;;;;6.00;3.15;;;22.10;99.90;;;23.74;59.86;97313.66;5032808;28;20413;-54
2023/07/12 00:52:14;;;;;;;10.98;3.55;;;22.10;99.90;;;23.71;59.82;97314.19;5033829;28;20048;-54
2023/07/12 00:54:59;;;;;;;4.32;3.38;;;22.10;99.90;;;23.73;59.63;97308.47;5033449;28;20049;-53
2023/07/12 00:57:32;;;;;;;3.78;2.50;;;22.00;99.90;;;23.72;59.27;97307.66;5026676;28;20060;-52
2023/07/12 01:00:10;;;;;;;5.43;3.33;;;22.00;99.90;;;23.65;59.67;97314.38;5032922;28;20041;-52
2023/07/12 01:02:45;;;;;;;3.13;2.20;;;22.00;99.90;;;23.59;59.85;97310.78;5016342;28;20048;-53
2023/07/12 01:05:14;;;;;;;3.45;2.53;;;22.10;99.90;;;23.56;59.90;97301.25;5024554;28;20058;-52
2023/07/12 01:07:44;;;;;;;6.93;2.83;;;22.00;99.90;;;23.57;59.77;97302.91;5032402;28;20052;-54
2023/07/12 01:10:12;;;;;;;3.63;2.95;;;22.00;99.90;;;23.53;59.86;97295.47;5032350;28;20526;-52
2023/07/12 01:12:40;;;;;;;4.18;2.97;;;22.00;99.90;;;23.54;59.98;97292.53;5032563;28;20056;-54
2023/07/12 01:15:11;;;;;;;6.75;2.90;;;22.00;99.90;;;23.56;59.43;97265.91;5033597;28;20054;-53
2023/07/12 01:17:39;;;;;;;3.60;2.72;;;22.00;99.90;;;23.56;59.67;97265.91;5016013;28;20076;-54
2023/07/12 01:20:10;;;;;;;4.38;3.03;;;22.10;99.90;;;23.54;59.87;97254.47;5033595;28;20572;-52
2023/07/12 01:22:37;;;;;;;6.68;3.88;;;22.20;99.90;;;23.59;59.69;97245.56;5033203;28;20046;-54
2023/07/12 01:25:05;;;;;;;4.95;3.35;;;22.10;99.90;;;23.58;59.77;97225.72;5033607;28;20041;-56
2023/07/12 01:27:33;;;;;;;3.38;2.45;;;22.10;99.90;;;23.51;59.86;97218.84;5032615;28;20068;-55
2023/07/12 01:30:01;;;;;;;4.90;2.67;;;22.10;99.90;;;23.43;60.16;97228.28;5032358;28;20056;-51
2023/07/12 01:32:32;;;;;;;3.33;3.00;;;22.10;99.90;;;23.43;60.30;97233.72;5033284;28;20049;-54
2023/07/12 01:35:00;;;;;;;5.32;3.22;;;22.10;99.90;;;23.46;60.28;97194.34;5033304;28;20413;-55
2023/07/12 01:37:27;;;;;;;3.95;2.88;;;22.00;99.90;;;23.48;60.28;97099.84;5032485;28;20049;-54
2023/07/12 01:39:58;;;;;;;4.70;2.90;;;22.10;99.90;;;23.46;60.39;97107.41;5032484;28;20045;-55
2023/07/12 01:42:25;;;;;;;3.90;3.25;;;22.00;99.90;;;23.39;60.99;97173.63;5031745;28;20046;-55
2023/07/12 01:44:53;;;;;;;8.90;3.63;;;21.90;99.90;;;23.42;60.80;97194.06;5033239;28;20429;-55
2023/07/12 01:47:21;;;;;;;5.43;2.53;;;21.80;99.90;;;23.44;60.63;97167.44;5033205;28;20052;-53
2023/07/12 01:49:48;;;;;;;3.53;2.30;;;21.80;99.90;;;23.39;60.38;97143.75;5031877;28;20052;-55
2023/07/12 01:52:16;;;;;;;4.32;2.58;;;21.80;99.90;;;23.36;60.57;97151.59;5032056;28;20038;-54
2023/07/12 01:54:44;;;;;;;3.67;3.05;;;21.80;99.90;;;23.34;60.42;97151.03;5031701;28;20042;-52
2023/07/12 01:57:11;;;;;;;6.07;2.47;;;21.90;99.90;;;23.34;60.35;97172.75;5032831;28;20496;-52
2023/07/12 01:59:39;;;;;;;4.78;2.25;;;21.80;99.90;;;23.29;60.63;97181.69;5031825;28;20053;-51
2023/07/12 02:02:07;;;;;;;5.38;3.42;;;21.70;99.90;;;23.30;60.72;97171.63;5032567;28;20409;-54
2023/07/12 02:04:37;;;;;;;4.45;2.97;;;21.70;99.90;;;23.30;60.58;97169.75;5032828;28;20056;-55
2023/07/12 02:07:05;;;;;;;3.92;2.53;;;21.70;99.90;;;23.31;60.55;97162.41;5032529;28;20045;-53
2023/07/12 02:09:40;;;;;;;3.95;2.80;;;21.70;99.90;;;23.32;60.47;97162.16;5032677;28;20041;-53
2023/07/12 02:12:09;;;;;;;4.55;3.10;;;21.70;99.90;;;23.30;60.50;97160.75;5031350;28;20508;-56
2023/07/12 02:14:36;;;;;;;3.75;2.60;;;21.70;99.90;;;23.28;60.61;97149.34;5031325;28;20057;-52
2023/07/12 02:17:04;;;;;;;3.67;2.70;;;21.70;99.90;;;23.28;60.41;97149.34;5031213;28;20520;-53
2023/07/12 02:19:33;;;;;;;5.85;2.80;;;21.80;99.90;;;23.29;60.77;97145.56;5015198;28;20057;-54
2023/07/12 02:22:01;;;;;;;4.65;2.83;;;21.70;99.90;;;23.29;60.22;97140.94;5031983;28;20041;-52
2023/07/12 02:24:28;;;;;;;4.25;3.08;;;21.60;99.90;;;23.25;60.18;97142.53;5031010;28;20436;-56
2023/07/12 02:26:56;;;;;;;3.88;2.72;;;21.60;99.90;;;23.21;60.62;97144.13;5032626;28;20052;-53
2023/07/12 02:29:24;;;;;;;4.43;2.63;;;21.60;99.90;;;23.21;60.68;97140.59;5032312;28;20041;-54
2023/07/12 02:31:54;;;;;;;3.75;3.08;;;21.60;99.90;;;23.22;60.59;97151.19;5014355;28;20057;-54
2023/07/12 02:34:22;;;;;;;6.82;3.13;;;21.70;99.90;;;23.19;60.63;97151.69;5023269;28;20049;-55
2023/07/12 02:36:50;;;;;;;7.13;3.67;;;21.60;99.90;;;23.16;60.49;97149.47;5032175;28;20042;-52
2023/07/12 02:39:18;;;;;;;5.85;3.35;;;21.40;99.90;;;23.11;60.73;97149.41;5031931;28;20044;-55
2023/07/12 02:41:46;;;;;;;6.28;3.10;;;21.30;99.90;;;23.07;60.60;97153.72;5031095;28;20044;-52
2023/07/12 02:44:13;;;;;;;6.80;3.50;;;21.30;99.90;;;23.04;60.66;97152.34;5031801;28;20062;-51
2023/07/12 02:46:41;;;;;;;5.35;3.10;;;21.20;99.90;;;23.01;60.96;97139.22;5030960;28;20049;-50
2023/07/12 02:49:09;;;;;;;9.38;3.95;;;21.20;99.90;;;23.01;60.81;97136.50;5031944;28;20058;-54
2023/07/12 02:51:36;;;;;;;5.65;3.20;;;21.20;99.90;;;22.99;61.08;97139.50;5030560;28;20042;-54
2023/07/12 02:54:04;;;;;;;6.88;3.17;;;21.30;99.90;;;22.97;61.17;97138.09;5031718;28;20052;-55
2023/07/12 02:56:32;;;;;;;4.18;3.08;;;21.20;99.90;;;22.96;60.94;97140.00;5031853;28;20040;-54
2023/07/12 02:58:59;;;;;;;6.07;3.33;;;21.30;99.90;;;22.96;61.00;97140.00;5031829;28;20046;-55
2023/07/12 03:01:27;;;;;;;5.55;3.30;;;21.20;99.90;;;22.97;61.17;97135.38;5031588;28;20105;-52
2023/07/12 03:03:55;;;;;;;6.47;3.38;;;21.30;99.90;;;22.96;60.99;97142.72;5031906;28;20049;-55
2023/07/12 03:06:23;;;;;;;5.00;3.33;;;21.30;99.90;;;22.99;60.90;97142.22;5031291;28;20064;-50
2023/07/12 03:08:51;;;;;;;6.15;3.28;;;21.40;99.90;;;23.04;60.80;97143.38;5023994;28;20041;-55
2023/07/12 03:11:18;;;;;;;5.30;3.35;;;21.40;99.90;;;23.02;60.95;97140.06;5030432;28;20481;-54
2023/07/12 03:13:46;;;;;;;8.10;4.03;;;21.30;99.90;;;23.03;60.54;97150.72;5031656;28;20045;-53
2023/07/12 03:16:13;;;;;;;3.83;3.08;;;21.30;99.90;;;23.01;60.70;97147.38;5031991;28;20416;-52
2023/07/12 03:18:41;;;;;;;5.28;3.22;;;21.40;99.90;;;22.98;60.94;97150.59;5031563;28;20034;-55
2023/07/12 03:21:09;;;;;;;5.00;3.95;;;21.30;99.90;;;22.98;61.06;97142.47;5031059;28;20100;-54
2023/07/12 03:23:37;;;;;;;6.05;3.58;;;21.30;99.90;;;22.98;60.66;97134.31;5030200;28;20417;-54
2023/07/12 03:26:05;;;;;;;5.80;3.83;;;21.30;99.90;;;23.00;61.08;97145.75;5031394;28;20311;-54
2023/07/12 03:28:33;;;;;;;5.72;2.97;;;21.30;99.90;;;23.00;60.99;97140.31;5031403;28;20050;-55
2023/07/12 03:31:05;;;;;;;4.30;3.20;;;21.30;99.90;;;22.98;61.21;97146.00;5029875;28;20052;-55
2023/07/12 03:33:34;;;;;;;8.63;3.58;;;21.30;99.90;;;22.97;60.97;97149.78;5024219;28;20041;-54
2023/07/12 03:36:03;;;;;;;7.18;3.50;;;21.30;99.90;;;22.98;60.72;97158.75;5030644;28;20045;-56
2023/07/12 03:38:32;;;;;;;5.15;3.78;;;21.20;99.90;;;22.95;60.82;97157.38;5031394;28;20038;-56
2023/07/12 03:41:06;;;;;;;4.70;3.45;;;21.20;99.90;;;22.92;60.97;97176.84;5030960;28;20049;-55
2023/07/12 03:43:35;;;;;;;5.75;3.67;;;21.10;99.90;;;22.93;60.99;97181.19;5023522;28;20048;-56
2023/07/12 03:46:05;;;;;;;6.75;3.80;;;21.10;99.90;;;22.93;61.27;97196.66;5031242;28;20041;-55
2023/07/12 03:48:33;;;;;;;5.47;4.22;;;21.10;99.90;;;22.92;60.93;97184.19;5029909;28;20042;-55
2023/07/12 03:51:01;;;;;;;8.07;4.00;;;21.20;99.90;;;22.95;61.14;97189.09;5029574;28;20045;-55
2023/07/12 03:53:29;;;;;;;5.88;3.15;;;21.20;99.90;;;22.96;60.92;97204.31;5031288;28;20509;-54
2023/07/12 03:56:03;;;;;;;7.45;4.05;;;21.30;99.90;;;22.96;61.35;97218.72;5031076;28;20041;-54
2023/07/12 03:58:36;;;;;;;11.60;4.03;;;21.30;99.90;;;22.94;61.38;97211.91;5023262;28;20033;-54
2023/07/12 04:01:10;;;;;;;6.70;4.15;;;21.30;99.90;;;22.95;61.25;97202.66;5031019;28;20489;-52
2023/07/12 04:03:39;;;;;;;8.50;3.80;;;21.30;99.90;;;22.94;61.04;97201.84;5024253;28;20045;-53
2023/07/12 04:06:09;;;;;;;5.43;3.28;;;21.20;99.90;;;22.92;60.99;97193.16;5032061;28;20045;-38
2023/07/12 04:08:37;;;;;;;5.85;3.22;;;21.20;99.90;;;22.91;61.40;97196.91;5029907;28;20417;-38
2023/07/12 04:11:06;;;;;;;5.47;3.90;;;21.20;99.90;;;22.89;61.19;97204.50;5029524;28;20423;-38
2023/07/12 04:13:35;;;;;;;4.93;3.72;;;21.20;99.90;;;22.94;61.43;97223.56;5029717;28;20045;-38
2023/07/12 04:16:02;;;;;;;6.88;3.33;;;21.30;99.90;;;22.92;61.17;97222.19;5031053;28;20041;-38
2023/07/12 04:18:30;;;;;;;5.93;3.72;;;21.30;99.90;;;22.90;61.14;97227.03;5030580;28;20048;-38
2023/07/12 04:21:04;;;;;;;6.35;3.90;;;21.30;99.90;;;22.91;61.27;97231.38;5030317;28;20041;-38
2023/07/12 04:23:32;;;;;;;4.55;3.78;;;21.30;99.90;;;22.94;61.42;97233.59;5022900;28;20147;-39
2023/07/12 04:26:04;;;;;;;8.52;4.03;;;21.40;99.90;;;22.92;61.42;97228.44;5030865;28;20416;-38
2023/07/12 04:28:38;;;;;;;4.85;3.65;;;21.30;99.90;;;22.92;61.48;97227.63;5030871;28;20104;-38
2023/07/12 04:31:12;;;;;;;5.32;3.53;;;21.30;99.90;;;22.93;61.26;97240.91;5030480;28;20638;-38
2023/07/12 04:33:40;;;;;;;5.07;3.88;;;21.30;99.90;;;22.95;61.59;97256.94;5022689;28;20460;-38
2023/07/12 04:36:11;;;;;;;5.65;3.30;;;21.40;99.90;;;22.99;61.62;97249.94;5029530;28;20072;-39
2023/07/12 04:38:39;;;;;;;4.55;3.60;;;21.40;99.90;;;23.04;61.21;97241.91;5030869;28;20033;-39
2023/07/12 04:41:07;;;;;;;5.28;4.03;;;21.40;99.90;;;23.05;61.64;97250.88;5030724;28;20042;-38
2023/07/12 04:43:35;;;;;;;7.88;3.92;;;21.50;99.90;;;23.08;61.46;97243.03;5021946;28;20038;-38
2023/07/12 04:46:04;;;;;;;6.50;3.88;;;21.50;99.90;;;23.14;61.32;97250.19;5030724;28;20049;-38
2023/07/12 04:48:33;;;;;;;8.38;3.92;;;21.60;99.90;;;23.14;61.47;97242.03;5033179;28;20041;-38
2023/07/12 04:51:03;;;;;;;7.13;3.88;;;21.60;99.90;;;23.14;61.13;97247.47;5033794;28;20080;-38
2023/07/12 04:53:31;;;;;;;5.82;3.45;;;21.60;99.90;;;23.15;61.18;97246.41;5034339;28;20052;-38
2023/07/12 04:55:59;;;;;;;7.63;4.00;;;21.70;99.90;;;23.22;61.19;97243.50;5034225;28;20041;-38
2023/07/12 04:58:27;;;;;;;5.85;3.95;;;21.70;99.90;;;23.26;61.48;97247.34;5033928;28;20050;-38
2023/07/12 05:00:58;;;;;;;4.68;3.80;;;21.80;99.90;;;23.31;61.16;97236.56;5033803;28;20053;-38
2023/07/12 05:03:26;;;;;;;8.38;4.68;;;21.80;99.90;;;23.36;61.23;97244.78;5034029;28;20519;-38
2023/07/12 05:06:00;;;;;;;7.65;4.55;;;21.80;99.90;;;23.38;60.96;97239.09;5034086;28;20409;-38
2023/07/12 05:08:47;;;;;;;8.27;4.63;;;21.90;99.90;;;23.43;61.31;97243.75;5027226;28;20057;-38
2023/07/12 05:11:15;;;;;;;6.60;4.35;;;21.90;99.90;;;23.46;61.18;97243.22;5033508;28;20064;-38
2023/07/12 05:13:43;;;;;;;6.22;4.30;;;22.00;99.90;;;23.52;60.93;97251.19;5033865;28;20080;-38
2023/07/12 05:16:11;;;;;;;5.93;4.07;;;22.10;99.90;;;23.58;60.98;97244.75;5033693;28;20432;-38
2023/07/12 05:18:38;;;;;;;10.18;4.18;;;22.20;99.90;;;23.64;60.83;97250.25;5033694;28;20037;-38
2023/07/12 05:21:06;;;;;;;9.10;4.35;;;22.20;99.90;;;23.68;60.76;97248.66;5033917;28;20060;-39
2023/07/12 05:23:36;;;;;;;6.15;4.28;;;22.20;99.90;;;23.66;60.81;97248.09;5033776;28;20432;-39
2023/07/12 05:26:04;;;;;;;5.35;4.25;;;22.30;99.90;;;23.70;60.79;97247.31;5033351;28;20052;-39
2023/07/12 05:28:32;;;;;;;8.48;4.72;;;22.30;99.90;;;23.76;60.52;97253.63;5033312;28;20053;-38
2023/07/12 05:31:09;;;;;;;6.20;4.72;;;22.40;99.90;;;23.78;60.31;97252.31;5033161;28;20048;-38
2023/07/12 05:33:41;;;;;;;6.63;4.68;;;22.40;99.90;;;23.84;59.91;97246.94;5033418;28;20041;-38
2023/07/12 05:36:10;;;;;;;5.88;4.65;;;22.40;99.90;;;23.88;60.14;97258.94;5033296;28;20045;-38
2023/07/12 05:38:37;;;;;;;6.90;5.07;;;22.50;99.90;;;23.91;59.77;97255.72;5032965;28;20052;-38
2023/07/12 05:41:05;;;;;;;8.32;4.90;;;22.50;99.90;;;23.91;59.98;97253.00;5033047;28;20048;-39
2023/07/12 05:43:35;;;;;;;7.63;5.18;;;22.50;99.90;;;23.95;59.67;97252.22;5032344;28;20048;-39
2023/07/12 05:46:06;;;;;;;11.10;4.95;;;22.60;99.90;;;23.95;59.58;97244.06;5034021;28;20040;-54
2023/07/12 05:48:34;;;;;;;5.55;4.45;;;22.50;99.90;;;24.00;59.59;97250.63;5032874;28;20049;-52
2023/07/12 05:51:03;;;;;;;6.53;4.78;;;22.70;99.90;;;24.01;59.50;97242.22;5032739;28;20045;-53
2023/07/12 05:53:31;;;;;;;7.35;4.43;;;22.70;99.90;;;24.06;59.33;97252.31;5033414;28;20049;-54
2023/07/12 05:56:00;;;;;;;7.00;4.70;;;22.70;99.90;;;24.08;59.42;97244.72;5032927;28;20049;-54
2023/07/12 05:58:27;;;;;;;6.53;5.32;;;22.80;99.90;;;24.12;59.34;97245.88;5030923;28;20049;-55
2023/07/12 06:00:58;;;;;;;6.15;4.95;;;22.80;99.90;;;24.15;59.10;97250.78;5032387;28;20041;-52
2023/07/12 06:03:32;;;;;;;6.60;4.80;;;22.80;99.90;;;24.17;58.92;97245.91;5032857;28;20045;-55
2023/07/12 06:06:04;;;;;;;9.88;5.88;;;22.80;99.80;;;24.26;58.72;97246.25;5031655;28;20042;-56
2023/07/12 06:08:32;;;;;;;6.65;5.20;;;23.00;98.50;;;24.32;58.60;97240.59;5032605;28;20049;-53
2023/07/12 06:10:59;;;;;;;4.85;4.30;;;23.10;98.30;;;24.32;58.47;97246.03;5032548;28;20547;-55
2023/07/12 06:13:27;;;;;;;5.88;4.15;;;23.00;97.80;;;24.33;58.33;97244.13;5032633;28;20512;-56
2023/07/12 06:15:55;;;;;;;6.35;4.13;;;23.10;97.50;;;24.35;58.30;97240.09;5031557;28;20041;-55
2023/07/12 06:18:24;;;;;;;6.53;4.50;;;23.10;97.60;;;24.42;57.99;97244.47;5032112;28;20046;-54
2023/07/12 06:20:57;;;;;;;7.47;5.45;;;23.10;96.60;;;24.47;57.79;97248.06;5032432;28;20044;-38
2023/07/12 06:23:25;;;;;;;8.05;5.10;;;23.20;96.40;;;24.50;57.74;97257.59;5032556;28;20046;-39
2023/07/12 06:25:57;;;;;;;5.10;4.30;;;23.20;95.80;;;24.52;57.58;97260.91;5031357;28;20037;-45
2023/07/12 06:28:25;;;;;;;6.68;4.55;;;23.20;95.60;;;24.57;57.05;97269.13;5032296;28;20049;-38
2023/07/12 06:30:53;;;;;;;4.95;4.45;;;23.30;94.00;;;24.62;56.42;97280.06;5032453;28;20049;-38
2023/07/12 06:33:21;;;;;;;5.50;4.03;;;23.40;91.40;;;24.66;56.01;97280.34;5032225;28;20053;-38
2023/07/12 06:35:48;;;;;;;5.82;3.92;;;23.50;89.80;;;24.68;55.10;97284.44;5032128;28;20049;-39
2023/07/12 06:38:17;;;;;;;6.00;3.85;;;23.50;86.80;;;24.72;54.60;97288.28;5032260;28;20048;-39
2023/07/12 06:40:45;;;;;;;6.38;3.63;;;23.50;85.60;;;24.77;54.25;97292.94;5031792;28;20053;-38
2023/07/12 06:43:13;;;;;;;7.18;4.03;;;23.60;84.70;;;24.79;53.61;97298.94;5031476;28;20049;-39
2023/07/12 06:45:45;;;;;;;6.78;3.50;;;23.60;82.30;;;24.86;53.63;97296.81;5031163;28;20053;-39
2023/07/12 06:48:13;;;;;;;5.57;3.40;;;23.60;80.80;;;24.90;52.50;97289.75;5032162;28;20048;-38
2023/07/12 06:50:40;;;;;;;6.78;4.50;;;23.80;78.60;;;24.88;53.02;97286.50;5031489;28;20159;-39
2023/07/12 06:53:08;;;;;;;4.93;4.40;;;23.70;78.40;;;24.90;52.59;97287.03;5032589;28;20049;-38
2023/07/12 06:55:43;;;;;;;3.85;3.00;;;23.80;77.80;;;24.90;51.90;97294.41;5031858;28;20049;-39
2023/07/12 06:58:11;;;;;;;9.88;4.20;;;23.70;73.80;;;24.93;51.75;97296.59;5031680;28;20145;-39
2023/07/12 07:00:41;;;;;;;5.63;3.55;;;23.80;75.10;;;24.94;51.88;97304.50;5030316;28;20042;-39
2023/07/12 07:03:10;;;;;;;6.50;3.13;;;23.80;75.90;;;25.01;51.73;97296.13;5030855;28;20052;-39
2023/07/12 07:05:44;;;;;;;5.63;3.55;;;23.80;75.00;;;25.02;52.06;97305.91;5031679;28;20052;-39
2023/07/12 07:08:16;;;;;;;6.15;3.63;;;23.90;74.80;;;25.09;52.00;97316.59;5031687;28;20052;-38
2023/07/12 07:10:49;;;;;;;5.57;3.90;;;23.90;73.50;;;24.95;51.61;97308.03;5030971;28;20053;-39
2023/07/12 07:13:17;;;;;;;6.30;3.42;;;23.80;73.50;;;25.08;51.89;97323.09;5031504;28;20052;-38
2023/07/12 07:15:46;;;;;;;4.15;3.10;;;23.90;74.40;;;25.10;51.82;97324.47;5031587;28;20045;-39
2023/07/12 07:18:14;;;;;;;4.95;3.22;;;24.00;74.50;;;25.09;51.64;97333.72;5031452;28;20038;-39
2023/07/12 07:20:43;;;;;;;4.05;3.10;;;23.90;72.40;;;25.15;51.02;97318.25;5030964;28;20432;-38
2023/07/12 07:23:14;;;;;;;5.75;3.63;;;24.00;72.70;;;25.15;50.53;97324.50;5031593;28;20049;-39
2023/07/12 07:25:42;;;;;;;3.95;3.30;;;24.00;71.20;;;25.13;50.52;97334.84;5032229;28;20053;-38
2023/07/12 07:28:10;;;;;;;6.15;3.90;;;24.00;70.80;;;25.17;50.46;97331.63;5031419;28;20424;-39
2023/07/12 07:30:38;;;;;;;10.45;3.40;;;24.00;70.50;;;24.95;50.21;97338.81;5031091;28;20401;-39
2023/07/12 07:33:06;;;;;;;3.65;3.05;;;24.00;69.30;;;25.03;50.16;97331.22;5031513;28;20064;-39
2023/07/12 07:35:34;;;;;;;4.35;3.00;;;24.00;69.90;;;25.11;50.07;97339.75;5031215;28;20053;-39
2023/07/12 07:38:02;;;;;;;4.50;2.88;;;24.00;69.70;;;25.16;49.76;97330.78;5031468;28;20050;-38
2023/07/12 07:40:30;;;;;;;4.60;2.95;;;24.10;69.40;;;25.10;49.75;97340.00;5030995;28;20052;-39
2023/07/12 07:42:57;;;;;;;5.18;3.20;;;24.10;68.50;;;25.15;49.68;97340.84;5031232;28;20041;-57
2023/07/12 07:45:25;;;;;;;6.15;3.42;;;24.10;68.40;;;25.20;49.11;97339.25;5031123;28;20054;-57
2023/07/12 07:47:52;;;;;;;4.38;3.03;;;24.20;67.70;;;25.19;49.43;97341.16;5023225;28;20041;-56
2023/07/12 07:50:20;;;;;;;7.47;3.58;;;24.20;67.90;;;25.21;49.47;97346.34;5031102;28;20047;-56
2023/07/12 07:52:48;;;;;;;5.53;3.08;;;24.20;67.50;;;25.32;49.40;97345.34;5029873;28;20050;-56
2023/07/12 07:55:16;;;;;;;3.97;2.83;;;24.30;66.20;;;25.24;48.81;97349.41;5031566;28;20051;-57
2023/07/12 07:57:43;;;;;;;3.95;3.00;;;24.30;66.10;;;25.22;49.70;97351.56;5031351;28;20042;-56
2023/07/12 08:00:13;;;;;;;4.90;2.85;;;24.30;67.20;;;25.28;49.72;97357.84;5031454;28;20049;-53
2023/07/12 08:02:42;;;;;;;6.88;3.88;;;24.40;67.10;;;25.21;49.63;97354.50;5031190;28;20041;-53
2023/07/12 08:05:11;;;;;;;5.35;3.28;;;24.40;66.80;;;25.26;49.36;97343.66;5030172;28;20420;-57
2023/07/12 08:07:40;;;;;;;6.25;3.20;;;24.50;66.60;;;25.43;49.11;97343.50;5031164;28;20045;-54
2023/07/12 08:10:17;;;;;;;4.85;3.40;;;24.60;65.90;;;25.52;49.08;97331.00;5031120;28;20055;-54
2023/07/12 08:12:48;;;;;;;3.35;2.97;;;24.60;66.40;;;25.54;48.06;97326.13;5030790;28;20056;-54
2023/07/12 08:15:18;;;;;;;4.05;2.60;;;24.70;64.10;;;25.58;47.82;97340.84;5029788;28;20054;-54
2023/07/12 08:17:46;;;;;;;7.03;3.15;;;24.70;62.80;;;25.44;46.96;97343.22;5030977;28;20468;-57
2023/07/12 08:20:14;;;;;;;7.28;2.92;;;24.70;61.30;;;25.44;47.34;97343.22;5030833;28;20045;-56
2023/07/12 08:22:42;;;;;;;4.00;2.90;;;24.70;61.60;;;25.64;47.82;97342.50;5034026;28;20048;-56
2023/07/12 08:25:10;;;;;;;4.53;3.40;;;24.70;64.20;;;25.47;48.06;97341.88;5034747;28;20046;-56
2023/07/12 08:27:37;;;;;;;4.95;3.10;;;24.70;62.80;;;25.69;48.58;97352.63;5033324;28;20048;-57
2023/07/12 08:30:06;;;;;;;5.32;3.00;;;24.80;64.70;;;25.81;48.20;97350.50;5034596;28;20041;-56
2023/07/12 08:32:34;;;;;;;4.25;3.60;;;24.90;64.70;;;25.79;47.41;97349.13;5034231;28;20064;-56
2023/07/12 08:35:03;;;;;;;6.28;2.78;;;25.00;62.60;;;25.80;45.85;97351.56;5034788;28;20056;-54
2023/07/12 08:37:32;;;;;;;4.45;2.90;;;25.00;59.20;;;25.73;45.88;97361.91;5034165;28;20064;-55
2023/07/12 08:40:00;;;;;;;3.53;2.70;;;25.00;59.40;;;25.95;46.47;97356.28;5034374;28;20041;-52
2023/07/12 08:42:40;;;;;;;5.88;3.00;;;25.10;61.30;;;25.86;46.22;97361.44;5034137;28;20057;-56
2023/07/12 08:45:29;;;;;;;4.43;2.63;;;25.10;59.00;;;25.65;46.67;97359.66;5026616;28;20041;-56
2023/07/12 08:48:02;;;;;;;5.95;3.03;;;25.10;59.90;;;25.72;45.33;97366.53;5025784;28;20048;-56
2023/07/12 08:50:44;;;;;;;3.10;2.60;;;25.10;57.80;;;25.72;45.93;97369.25;5016791;28;20041;-56
2023/07/12 08:53:19;;;;;;;4.53;2.65;;;25.10;58.50;;;25.84;45.63;97374.50;5027070;28;20402;-55
2023/07/12 08:55:49;;;;;;;4.15;3.00;;;25.10;58.20;;;25.76;45.79;97361.38;5032869;28;20508;-56
2023/07/12 08:58:26;;;;;;;4.35;2.45;;;25.10;58.10;;;26.01;44.86;97362.59;5034216;28;20235;-57
2023/07/12 09:01:50;;;;;;;4.85;2.78;;;25.20;57.50;;;25.98;42.82;97371.28;5033876;28;20054;-56
2023/07/12 09:04:28;;;;;;;3.97;3.15;;;25.30;55.80;;;25.97;44.01;97366.94;5027322;28;20053;-55
2023/07/12 09:07:01;;;;;;;5.32;3.28;;;25.30;55.80;;;26.07;45.10;97372.41;5033849;28;20425;-53
2023/07/12 09:09:39;;;;;;;6.63;3.15;;;25.40;57.40;;;26.09;43.78;97375.69;5032659;28;20050;-60
2023/07/12 09:12:30;;;;;;;5.30;3.15;;;25.40;56.30;;;26.00;43.62;97369.13;5033687;28;20049;-54
2023/07/12 09:15:11;;;;;;;5.10;3.47;;;25.40;54.90;;;25.95;44.47;97380.03;5032439;28;20041;-55
2023/07/12 09:17:44;;;;;;;4.07;2.70;;;25.40;56.80;;;26.07;44.21;97383.31;5033859;28;20053;-56
2023/07/12 09:20:25;;;;;;;5.88;2.78;;;25.40;56.30;;;26.24;44.55;97375.75;5033622;28;20448;-54
2023/07/12 09:22:54;;;;;;;3.72;2.78;;;25.50;56.60;;;26.41;44.41;97380.97;5033643;28;20052;-55
2023/07/12 09:25:34;;;;;;;4.25;2.65;;;25.70;57.10;;;26.22;44.55;97383.38;5032186;28;20045;-55
2023/07/12 09:28:02;;;;;;;5.97;2.67;;;25.70;56.10;;;26.49;44.28;97377.72;5032378;28;20045;-54
2023/07/12 09:30:30;;;;;;;3.83;2.58;;;25.70;56.60;;;26.32;44.37;97374.41;5033392;28;20037;-53
2023/07/12 09:32:58;;;;;;;3.92;2.88;;;25.70;56.00;;;26.45;44.07;97375.81;5032680;28;20421;-54
2023/07/12 09:35:45;;;;;;;4.38;3.47;;;25.70;56.60;;;26.56;43.88;97371.16;5032505;28;20045;-55
2023/07/12 09:38:17;;;;;;;3.80;2.70;;;25.80;56.20;;;26.53;43.99;97367.88;5026867;28;20049;-56
2023/07/12 09:40:48;;;;;;;8.52;3.20;;;25.80;55.10;;;26.54;43.91;97376.91;5032690;28;20496;-57
2023/07/12 09:43:23;;;;;;;6.45;3.35;;;25.80;56.00;;;26.60;44.12;97370.41;5032897;28;20046;-56
2023/07/12 09:46:24;;;;;;;3.53;2.22;;;25.80;55.60;;;26.78;43.50;97377.22;5033570;28;20393;-55
2023/07/12 09:52:59;;;;;;;5.32;2.72;;;25.90;53.90;;;26.74;42.69;97362.47;5029638;28;20045;-55
2023/07/12 09:55:52;;;;;;;5.13;2.70;;;26.00;54.10;;;26.86;43.25;97360.28;5028024;28;20049;-56
2023/07/12 09:58:43;;;;;;;4.72;3.20;;;26.10;55.20;;;26.80;41.90;97364.13;5026030;28;20049;-56
2023/07/12 10:01:54;;;;;;;3.97;2.90;;;26.10;53.10;;;26.95;41.42;97365.19;5025846;28;20046;-56
2023/07/12 10:04:39;;;;;;;5.03;3.38;;;26.10;51.40;;;26.98;40.97;97362.75;5027116;28;20045;-39
2023/07/12 10:07:52;;;;;;;2.83;2.53;;;26.10;52.20;;;26.92;41.67;97356.47;5024830;28;20496;-39
2023/07/12 10:10:49;;;;;;;3.60;2.47;;;26.10;52.90;;;26.86;42.77;97354.81;5026573;28;20520;-39
2023/07/12 10:13:42;;;;;;;5.70;3.03;;;26.20;53.50;;;27.06;42.24;97362.22;5026308;28;20068;-40
2023/07/12 10:16:25;;;;;;;3.78;3.13;;;26.40;53.00;;;27.01;41.29;97356.75;5024326;28;20060;-39
2023/07/12 10:18:55;;;;;;;3.33;2.70;;;26.30;52.00;;;27.14;41.58;97347.16;5031645;28;20056;-39
2023/07/12 10:21:25;;;;;;;3.88;2.78;;;26.40;52.10;;;27.14;40.81;97357.25;5031194;28;20045;-39
2023/07/12 10:24:01;;;;;;;4.68;3.05;;;26.40;50.80;;;27.29;41.21;97352.63;5031944;28;20549;-39
2023/07/12 10:26:31;;;;;;;4.78;3.42;;;26.40;51.90;;;27.18;40.63;97348.25;5031242;28;20520;-39
2023/07/12 10:29:19;;;;;;;2.75;2.55;;;26.50;50.50;;;27.39;40.72;97354.50;5031151;28;20049;-39
2023/07/12 10:31:55;;;;;;;4.65;3.25;;;26.50;50.40;;;27.33;40.57;97349.34;5032074;28;20410;-39
2023/07/12 10:34:39;;;;;;;3.17;2.45;;;26.70;50.20;;;27.42;40.48;97358.63;5032535;28;20052;-39
2023/07/12 10:37:29;;;;;;;5.32;3.40;;;26.90;49.80;;;27.41;40.49;97351.50;5024045;28;20045;-39
2023/07/12 10:39:59;;;;;;;5.68;3.13;;;26.80;49.60;;;27.48;40.56;97341.91;5031697;28;20053;-39
2023/07/12 10:42:43;;;;;;;4.68;2.83;;;26.90;50.70;;;27.60;40.05;97357.19;5030098;28;20037;-39